Time;durP1;ratioP1;P1;durP2;ratioP2;P2;SDS_P1;SDS_P2;PMS_P1;PMS_P2;Temp;Humidity;BMP_temperature;BMP_pressure;BME280_temperature;BME280_humidity;BME280_pressure;Samples;Min_cycle;Max_cycle;Signal;HPM_P1;HPM_P2
2022/05/30 00:02:04;;;;;;;4.57;2.20;;;;;;;;;;6184248;23;20008;-82
2022/05/30 00:04:30;;;;;;;5.63;1.77;;;;;;;;;;6185336;23;20032;-86
2022/05/30 00:06:56;;;;;;;3.80;2.00;;;;;;;;;;6185462;23;20092;-87
2022/05/30 00:09:22;;;;;;;3.53;1.75;;;;;;;;;;6185040;23;20005;-80
2022/05/30 00:11:50;;;;;;;3.13;1.90;;;;;;;;;;6185433;23;20009;-86
2022/05/30 00:14:16;;;;;;;3.85;1.55;;;;;;;;;;6184997;23;20059;-80
2022/05/30 00:16:42;;;;;;;3.30;1.70;;;;;;;;;;6184110;23;20009;-80
2022/05/30 00:19:08;;;;;;;3.28;2.00;;;;;;;;;;6184233;23;20101;-82
2022/05/30 00:21:34;;;;;;;3.35;1.70;;;;;;;;;;6183670;23;20017;-82
2022/05/30 00:24:01;;;;;;;4.30;1.55;;;;;;;;;;6183716;23;20005;-82
2022/05/30 00:26:27;;;;;;;4.75;1.73;;;;;;;;;;6185671;23;20497;-82
2022/05/30 00:28:53;;;;;;;2.92;1.60;;;;;;;;;;6185375;23;20007;-82
2022/05/30 00:31:20;;;;;;;4.03;1.80;;;;;;;;;;6185551;23;20005;-82
2022/05/30 00:33:47;;;;;;;4.70;1.88;;;;;;;;;;6187317;23;20061;-82
2022/05/30 00:36:13;;;;;;;3.78;1.83;;;;;;;;;;6187455;23;20008;-82
2022/05/30 00:38:39;;;;;;;3.30;1.80;;;;;;;;;;6185339;23;20009;-81
2022/05/30 00:41:06;;;;;;;3.13;1.80;;;;;;;;;;6185961;23;20008;-82
2022/05/30 00:43:34;;;;;;;4.22;2.00;;;;;;;;;;6185522;23;20092;-82
2022/05/30 00:46:01;;;;;;;4.00;1.88;;;;;;;;;;6185685;23;20080;-81
2022/05/30 00:48:30;;;;;;;3.72;1.90;;;;;;;;;;6185829;23;20001;-82
2022/05/30 00:50:59;;;;;;;3.63;2.05;;;;;;;;;;6185756;23;20040;-78
2022/05/30 00:53:27;;;;;;;3.53;1.65;;;;;;;;;;6185229;23;20005;-82
2022/05/30 00:55:53;;;;;;;3.70;1.95;;;;;;;;;;6187249;23;20008;-81
2022/05/30 00:58:20;;;;;;;3.58;2.08;;;;;;;;;;6185424;23;20092;-82
2022/05/30 01:00:46;;;;;;;3.80;1.95;;;;;;;;;;6185306;23;20009;-79
2022/05/30 01:08:42;;;;;;;3.60;1.80;;;;;;;;;;6187131;23;20047;-82
2022/05/30 01:11:08;;;;;;;3.97;1.80;;;;;;;;;;6185646;23;20005;-80
2022/05/30 01:13:37;;;;;;;5.63;2.15;;;;;;;;;;6185354;23;20005;-83
2022/05/30 01:16:04;;;;;;;2.70;1.67;;;;;;;;;;6184918;23;20009;-81
2022/05/30 01:18:31;;;;;;;3.38;1.95;;;;;;;;;;6185132;23;20009;-82
2022/05/30 01:21:15;;;;;;;4.03;1.60;;;;;;;;;;6185298;23;20020;-82
2022/05/30 01:24:00;;;;;;;3.33;1.63;;;;;;;;;;6185378;23;20008;-80
2022/05/30 01:26:47;;;;;;;4.00;1.80;;;;;;;;;;6185094;23;20009;-82
2022/05/30 01:29:35;;;;;;;3.53;1.80;;;;;;;;;;6161134;23;20013;-82
2022/05/30 01:32:01;;;;;;;4.35;1.90;;;;;;;;;;6185388;23;20027;-79
2022/05/30 01:34:28;;;;;;;4.78;2.10;;;;;;;;;;6185168;23;20011;-81
2022/05/30 01:36:54;;;;;;;4.47;1.83;;;;;;;;;;6186895;23;20001;-80
2022/05/30 01:39:20;;;;;;;6.25;2.08;;;;;;;;;;6185014;23;20395;-82
2022/05/30 01:41:46;;;;;;;3.42;2.00;;;;;;;;;;6185158;23;20051;-80
2022/05/30 01:44:14;;;;;;;3.20;1.60;;;;;;;;;;6185156;23;20009;-82
2022/05/30 01:46:41;;;;;;;4.43;2.03;;;;;;;;;;6184863;23;20492;-81
2022/05/30 01:49:07;;;;;;;3.05;1.48;;;;;;;;;;6184691;23;20013;-80
2022/05/30 01:51:33;;;;;;;3.20;1.60;;;;;;;;;;6185281;23;20052;-82
2022/05/30 01:54:00;;;;;;;2.75;1.45;;;;;;;;;;6184915;23;20457;-82
2022/05/30 01:56:26;;;;;;;3.38;1.90;;;;;;;;;;6185429;23;20430;-82
2022/05/30 01:58:52;;;;;;;2.95;1.67;;;;;;;;;;6186705;23;20008;-81
2022/05/30 02:01:20;;;;;;;3.05;1.50;;;;;;;;;;6184772;23;20434;-82
2022/05/30 02:03:47;;;;;;;2.92;1.60;;;;;;;;;;6184993;23;20005;-82
2022/05/30 02:06:13;;;;;;;3.92;1.80;;;;;;;;;;6186581;23;20005;-81
2022/05/30 02:08:40;;;;;;;2.78;1.50;;;;;;;;;;6184686;23;20367;-82
2022/05/30 02:11:08;;;;;;;3.65;1.50;;;;;;;;;;6186490;23;20028;-82
2022/05/30 02:13:35;;;;;;;3.47;1.70;;;;;;;;;;6184768;23;20005;-80
2022/05/30 02:18:50;;;;;;;3.35;1.67;;;;;;;;;;6186317;23;20067;-80
2022/05/30 02:21:17;;;;;;;3.25;1.90;;;;;;;;;;6184561;23;20020;-83
2022/05/30 02:23:43;;;;;;;3.95;1.65;;;;;;;;;;6184168;23;20005;-83
2022/05/30 02:26:10;;;;;;;4.28;1.65;;;;;;;;;;6184896;23;20012;-80
2022/05/30 02:28:36;;;;;;;4.68;2.20;;;;;;;;;;6186423;23;19997;-82
2022/05/30 02:31:03;;;;;;;3.28;1.83;;;;;;;;;;6186259;23;20060;-79
2022/05/30 02:38:59;;;;;;;3.88;1.90;;;;;;;;;;6186578;23;20078;-82
2022/05/30 02:41:25;;;;;;;3.78;1.80;;;;;;;;;;6184841;23;20338;-82
2022/05/30 02:43:51;;;;;;;3.60;1.67;;;;;;;;;;6184204;23;20005;-80
2022/05/30 02:46:18;;;;;;;3.03;1.75;;;;;;;;;;6184396;23;20056;-81
2022/05/30 02:48:45;;;;;;;4.05;1.80;;;;;;;;;;6184501;23;20415;-82
2022/05/30 02:51:15;;;;;;;4.43;1.73;;;;;;;;;;6184970;23;20007;-82
2022/05/30 02:53:41;;;;;;;3.10;1.50;;;;;;;;;;6185994;23;20084;-79
2022/05/30 02:56:08;;;;;;;3.25;1.50;;;;;;;;;;6184206;23;20427;-81
2022/05/30 02:58:34;;;;;;;2.67;1.50;;;;;;;;;;6184536;23;20328;-82
2022/05/30 03:01:00;;;;;;;3.13;1.60;;;;;;;;;;6184076;23;20009;-81
2022/05/30 03:03:26;;;;;;;3.50;1.45;;;;;;;;;;6186045;23;20052;-82
2022/05/30 03:05:54;;;;;;;4.15;1.50;;;;;;;;;;6185979;23;20008;-80
2022/05/30 03:08:20;;;;;;;4.43;1.70;;;;;;;;;;6184076;23;20001;-82
2022/05/30 03:10:47;;;;;;;4.13;1.90;;;;;;;;;;6184339;23;20095;-82
2022/05/30 03:13:13;;;;;;;3.80;1.80;;;;;;;;;;6185821;23;20008;-81
2022/05/30 03:15:43;;;;;;;5.00;1.45;;;;;;;;;;6184219;23;20009;-80
2022/05/30 03:18:09;;;;;;;3.92;1.77;;;;;;;;;;6184252;23;20000;-81
2022/05/30 03:20:35;;;;;;;4.32;1.70;;;;;;;;;;6183647;23;20071;-81
2022/05/30 03:23:01;;;;;;;5.50;1.67;;;;;;;;;;6184323;23;20005;-83
2022/05/30 03:25:27;;;;;;;4.90;1.77;;;;;;;;;;6185978;23;20323;-80
2022/05/30 03:27:56;;;;;;;4.60;1.80;;;;;;;;;;6184292;23;20480;-82
2022/05/30 03:30:22;;;;;;;3.70;1.80;;;;;;;;;;6186079;23;20415;-80
2022/05/30 03:32:48;;;;;;;4.45;1.80;;;;;;;;;;6184249;23;20091;-82
2022/05/30 03:35:16;;;;;;;5.00;1.80;;;;;;;;;;6184328;23;20362;-82
2022/05/30 03:37:42;;;;;;;3.42;1.73;;;;;;;;;;6185968;23;20005;-80
2022/05/30 03:40:10;;;;;;;2.67;1.50;;;;;;;;;;6184367;23;20013;-82
2022/05/30 03:42:36;;;;;;;3.35;1.70;;;;;;;;;;6185961;23;20001;-81
2022/05/30 03:45:04;;;;;;;4.88;1.60;;;;;;;;;;6184285;23;20005;-82
2022/05/30 03:47:35;;;;;;;3.50;1.67;;;;;;;;;;6184304;23;20058;-79
2022/05/30 03:50:02;;;;;;;3.60;1.65;;;;;;;;;;6183797;23;20036;-79
2022/05/30 03:52:28;;;;;;;2.90;1.40;;;;;;;;;;6184387;23;20101;-80
2022/05/30 03:54:54;;;;;;;3.30;1.60;;;;;;;;;;6184326;23;20064;-81
2022/05/30 03:57:20;;;;;;;2.30;1.55;;;;;;;;;;6184288;23;20088;-80
2022/05/30 03:59:47;;;;;;;3.30;1.63;;;;;;;;;;6184113;23;20048;-79
2022/05/30 04:02:14;;;;;;;3.78;1.60;;;;;;;;;;6183602;23;20001;-82
2022/05/30 04:04:40;;;;;;;3.60;1.67;;;;;;;;;;6184297;23;20015;-82
2022/05/30 04:07:07;;;;;;;3.75;1.60;;;;;;;;;;6185921;23;20430;-78
2022/05/30 04:09:33;;;;;;;3.92;1.50;;;;;;;;;;6185985;23;20009;-82
2022/05/30 04:12:00;;;;;;;4.38;2.00;;;;;;;;;;6187790;23;20009;-81
2022/05/30 04:14:26;;;;;;;3.72;1.75;;;;;;;;;;6187564;23;20001;-81
2022/05/30 04:16:52;;;;;;;2.72;1.58;;;;;;;;;;6185713;23;20001;-83
2022/05/30 04:19:18;;;;;;;4.55;1.60;;;;;;;;;;6185553;23;20445;-81
2022/05/30 04:21:44;;;;;;;5.47;1.58;;;;;;;;;;6187399;23;20017;-82
2022/05/30 04:24:13;;;;;;;3.47;1.75;;;;;;;;;;6188033;23;20419;-78
2022/05/30 04:26:39;;;;;;;3.42;1.55;;;;;;;;;;6185586;23;20005;-81
2022/05/30 04:29:07;;;;;;;3.70;1.77;;;;;;;;;;6185901;23;20005;-81
2022/05/30 04:31:34;;;;;;;4.65;1.70;;;;;;;;;;6185936;23;20005;-80
2022/05/30 04:34:00;;;;;;;4.07;1.80;;;;;;;;;;6186009;23;20009;-82
2022/05/30 04:36:26;;;;;;;3.08;1.70;;;;;;;;;;6187355;23;20005;-79
2022/05/30 04:38:53;;;;;;;3.65;2.00;;;;;;;;;;6185788;23;20020;-81
2022/05/30 04:41:19;;;;;;;4.60;1.80;;;;;;;;;;6185934;23;20005;-81
2022/05/30 04:43:45;;;;;;;5.18;1.98;;;;;;;;;;6185761;23;20009;-79
2022/05/30 04:46:12;;;;;;;3.10;1.70;;;;;;;;;;6186310;23;20009;-79
2022/05/30 04:48:39;;;;;;;6.13;1.73;;;;;;;;;;6184863;23;20009;-80
2022/05/30 04:51:05;;;;;;;3.67;1.77;;;;;;;;;;6184749;23;20048;-79
2022/05/30 04:53:32;;;;;;;3.10;1.63;;;;;;;;;;6184831;23;20438;-80
2022/05/30 04:55:58;;;;;;;3.72;1.60;;;;;;;;;;6184838;23;20040;-79
2022/05/30 04:58:24;;;;;;;6.35;1.70;;;;;;;;;;6185210;23;20005;-79
2022/05/30 05:00:50;;;;;;;4.30;1.20;;;;;;;;;;6184816;23;20016;-80
2022/05/30 05:03:16;;;;;;;4.40;1.30;;;;;;;;;;6185247;23;20024;-79
2022/05/30 05:05:43;;;;;;;5.07;1.60;;;;;;;;;;6184668;23;20009;-79
2022/05/30 05:08:15;;;;;;;4.57;1.50;;;;;;;;;;6185038;23;20084;-79
2022/05/30 05:11:01;;;;;;;4.03;1.10;;;;;;;;;;6184916;23;20334;-77
2022/05/30 05:13:27;;;;;;;4.45;1.30;;;;;;;;;;6159925;23;20485;-82
2022/05/30 05:15:57;;;;;;;3.22;0.93;;;;;;;;;;6184834;23;20009;-82
2022/05/30 05:18:23;;;;;;;3.75;1.13;;;;;;;;;;6185162;23;20012;-83
2022/05/30 05:20:49;;;;;;;2.58;0.93;;;;;;;;;;6185392;23;20343;-82
2022/05/30 05:23:16;;;;;;;2.55;0.98;;;;;;;;;;6184653;23;20020;-82
2022/05/30 05:25:42;;;;;;;2.03;0.88;;;;;;;;;;6186565;23;20387;-84
2022/05/30 05:28:08;;;;;;;1.92;0.73;;;;;;;;;;6185869;23;20068;-84
2022/05/30 05:30:34;;;;;;;2.55;0.75;;;;;;;;;;6185744;23;20005;-82
2022/05/30 05:33:01;;;;;;;1.98;0.70;;;;;;;;;;6185584;23;20371;-83
2022/05/30 05:35:27;;;;;;;2.58;0.82;;;;;;;;;;6185905;23;20009;-87
2022/05/30 05:37:54;;;;;;;2.38;0.98;;;;;;;;;;6185906;23;20001;-85
2022/05/30 05:40:20;;;;;;;2.78;0.90;;;;;;;;;;6185808;23;20067;-86
2022/05/30 05:42:46;;;;;;;2.58;0.90;;;;;;;;;;6185885;23;20012;-84
2022/05/30 05:45:12;;;;;;;2.60;1.20;;;;;;;;;;6186860;23;20005;-83
2022/05/30 05:47:38;;;;;;;2.88;1.20;;;;;;;;;;6187718;23;19997;-87
2022/05/30 05:50:05;;;;;;;9.40;1.20;;;;;;;;;;6185772;23;20008;-81
2022/05/30 05:52:32;;;;;;;2.08;0.95;;;;;;;;;;6185569;23;20426;-86
2022/05/30 05:54:59;;;;;;;3.97;1.27;;;;;;;;;;6186857;23;20418;-83
2022/05/30 05:57:25;;;;;;;3.67;1.20;;;;;;;;;;6188256;23;19997;-84
2022/05/30 05:59:52;;;;;;;4.88;1.05;;;;;;;;;;6187990;23;20355;-84
2022/05/30 06:02:27;;;;;;;3.08;1.15;;;;;;;;;;6187307;23;20024;-83
2022/05/30 06:04:54;;;;;;;4.07;1.25;;;;;;;;;;6184845;23;20009;-83
2022/05/30 06:07:20;;;;;;;2.63;1.10;;;;;;;;;;6185866;23;20005;-88
2022/05/30 06:09:46;;;;;;;5.03;1.65;;;;;;;;;;6185982;23;20431;-84
2022/05/30 06:12:12;;;;;;;7.05;1.42;;;;;;;;;;6185328;23;20020;-84
2022/05/30 06:17:10;;;;;;;3.67;1.70;;;;;;;;;;6157912;23;20033;-86
2022/05/30 06:19:36;;;;;;;3.10;1.13;;;;;;;;;;6155854;23;20041;-85
2022/05/30 06:22:03;;;;;;;2.80;1.23;;;;;;;;;;6155664;23;20001;-84
2022/05/30 06:24:29;;;;;;;3.75;1.33;;;;;;;;;;6155948;23;20365;-85
2022/05/30 06:26:55;;;;;;;5.95;1.60;;;;;;;;;;6155809;23;20080;-87
2022/05/30 06:29:21;;;;;;;4.40;1.38;;;;;;;;;;6155548;23;20040;-84
2022/05/30 06:31:47;;;;;;;3.40;1.23;;;;;;;;;;6155649;23;20040;-84
2022/05/30 06:34:13;;;;;;;5.03;1.25;;;;;;;;;;6155879;23;20005;-84
2022/05/30 06:36:41;;;;;;;6.10;2.38;;;;;;;;;;6155411;23;20001;-82
2022/05/30 06:39:07;;;;;;;3.83;1.60;;;;;;;;;;6155860;23;20067;-84
2022/05/30 06:41:33;;;;;;;3.80;2.10;;;;;;;;;;6155537;23;20009;-83
2022/05/30 06:44:06;;;;;;;5.18;1.58;;;;;;;;;;6157299;23;20004;-86
2022/05/30 06:46:33;;;;;;;3.35;1.45;;;;;;;;;;6155079;23;20010;-80
2022/05/30 06:48:59;;;;;;;2.75;1.23;;;;;;;;;;6155594;23;20017;-81
2022/05/30 06:51:27;;;;;;;3.13;1.30;;;;;;;;;;6155494;23;20001;-87
2022/05/30 06:53:53;;;;;;;3.25;1.27;;;;;;;;;;6155448;23;20060;-82
2022/05/30 06:56:21;;;;;;;3.78;1.80;;;;;;;;;;6155291;23;20024;-82
2022/05/30 06:58:50;;;;;;;5.85;2.67;;;;;;;;;;6154897;23;20017;-85
2022/05/30 07:01:17;;;;;;;3.08;1.67;;;;;;;;;;6155195;23;20006;-85
2022/05/30 07:03:45;;;;;;;6.22;1.73;;;;;;;;;;6155522;23;20013;-83
2022/05/30 07:06:12;;;;;;;4.15;1.80;;;;;;;;;;6155518;23;20025;-83
2022/05/30 07:08:46;;;;;;;5.15;2.92;;;;;;;;;;6155296;23;20037;-93
2022/05/30 07:11:12;;;;;;;3.15;1.50;;;;;;;;;;6156728;23;20375;-82
2022/05/30 07:13:39;;;;;;;5.38;1.30;;;;;;;;;;6155776;23;20006;-82
2022/05/30 07:16:05;;;;;;;4.30;1.70;;;;;;;;;;6154961;23;20087;-82
2022/05/30 07:18:32;;;;;;;3.50;1.42;;;;;;;;;;6155335;23;20001;-83
2022/05/30 07:20:59;;;;;;;2.65;1.17;;;;;;;;;;6155594;23;20009;-84
2022/05/30 07:23:25;;;;;;;3.20;1.40;;;;;;;;;;6155181;23;20067;-84
2022/05/30 08:49:34;;;;;;;1.95;0.65;;;;;;;;;;6191074;23;20342;-93
2022/05/30 09:13:35;;;;;;;1.25;0.50;;;;;;;;;;6163346;23;20036;-92
2022/05/30 09:16:25;;;;;;;2.13;0.55;;;;;;;;;;6160727;23;20001;-94
2022/05/30 09:19:10;;;;;;;3.60;0.70;;;;;;;;;;6193550;23;20070;-94
2022/05/30 09:21:37;;;;;;;1.77;0.50;;;;;;;;;;6121214;23;20006;-93
2022/05/30 09:24:11;;;;;;;1.95;0.60;;;;;;;;;;6102751;23;20383;-92
2022/05/30 09:27:02;;;;;;;;;;;;;;;;;;;;;
2022/05/30 09:36:30;;;;;;;2.03;0.40;;;;;;;;;;6088905;23;20083;-94
2022/05/30 09:45:25;;;;;;;2.00;0.70;;;;;;;;;;6027971;23;20099;-95
2022/05/30 09:48:08;;;;;;;3.17;0.60;;;;;;;;;;5940602;24;20028;-96
2022/05/30 09:51:48;;;;;;;5.13;1.02;;;;;;;;;;5940273;24;20013;-93
2022/05/30 09:57:31;;;;;;;2.30;0.70;;;;;;;;;;5914238;24;20016;-93
2022/05/30 10:00:24;;;;;;;2.15;0.70;;;;;;;;;;5910700;24;20025;-94
2022/05/30 10:03:03;;;;;;;2.22;0.77;;;;;;;;;;5900972;24;20057;-94
2022/05/30 10:14:57;;;;;;;2.90;0.70;;;;;;;;;;5938048;24;20103;-94
2022/05/30 10:18:04;;;;;;;1.48;0.47;;;;;;;;;;5923567;24;20051;-96
2022/05/30 10:34:01;;;;;;;1.27;0.50;;;;;;;;;;6181661;23;20052;-94
2022/05/30 10:42:22;;;;;;;3.13;0.55;;;;;;;;;;6154060;23;20052;-93
2022/05/30 10:45:10;;;;;;;1.77;0.60;;;;;;;;;;6189576;23;20462;-92
2022/05/30 11:05:05;;;;;;;2.25;0.40;;;;;;;;;;6199061;23;20298;-93
2022/05/30 11:07:37;;;;;;;1.05;0.52;;;;;;;;;;6197118;23;20048;-93
2022/05/30 11:10:07;;;;;;;2.05;0.70;;;;;;;;;;6179894;23;20083;-94
2022/05/30 11:18:35;;;;;;;1.90;0.55;;;;;;;;;;6189272;23;20033;-93
2022/05/30 11:21:27;;;;;;;3.92;0.70;;;;;;;;;;6196017;23;20024;-94
2022/05/30 11:24:13;;;;;;;3.53;0.90;;;;;;;;;;6172568;23;20068;-94
2022/05/30 11:29:49;;;;;;;3.85;0.60;;;;;;;;;;6198385;23;20008;-93
2022/05/30 11:32:41;;;;;;;2.85;0.50;;;;;;;;;;6173567;23;20056;-96
2022/05/30 11:38:14;;;;;;;3.35;0.60;;;;;;;;;;6196355;23;19911;-93
2022/05/30 11:41:12;;;;;;;3.15;0.80;;;;;;;;;;6170575;23;20017;-93
2022/05/30 11:44:04;;;;;;;1.95;0.65;;;;;;;;;;6169160;23;20407;-94
2022/05/30 11:46:52;;;;;;;2.27;0.87;;;;;;;;;;6132295;23;20025;-94
2022/05/30 11:49:30;;;;;;;2.72;0.50;;;;;;;;;;6160644;23;20305;-92
2022/05/30 11:52:18;;;;;;;2.78;0.60;;;;;;;;;;6165511;23;20446;-93
2022/05/30 11:55:04;;;;;;;4.93;0.80;;;;;;;;;;6171866;23;20001;-92
2022/05/30 11:57:52;;;;;;;1.52;0.60;;;;;;;;;;6171895;23;20037;-91
2022/05/30 12:00:37;;;;;;;3.10;0.63;;;;;;;;;;6165074;23;20078;-91
2022/05/30 12:03:45;;;;;;;2.22;0.82;;;;;;;;;;6166876;23;20056;-93
2022/05/30 12:06:29;;;;;;;2.65;1.00;;;;;;;;;;6017515;23;20008;-93
2022/05/30 12:09:14;;;;;;;1.58;0.60;;;;;;;;;;5994321;23;20011;-92
2022/05/30 12:12:24;;;;;;;2.92;0.80;;;;;;;;;;6109353;23;20317;-95
2022/05/30 12:14:59;;;;;;;2.70;0.60;;;;;;;;;;6112372;23;20054;-93
2022/05/30 16:53:06;;;;;;;;;;;;;;;;;;;;;
2022/05/30 16:58:08;;;;;;;2.03;0.40;;;;;;;;;;6147478;23;20044;-83
2022/05/30 17:00:36;;;;;;;2.25;0.75;;;;;;;;;;6159095;23;20446;-81
2022/05/30 17:03:02;;;;;;;2.63;0.60;;;;;;;;;;6160686;23;20005;-80
2022/05/30 17:05:28;;;;;;;2.50;0.60;;;;;;;;;;6161166;23;20044;-82
2022/05/30 17:07:54;;;;;;;2.05;0.50;;;;;;;;;;6161328;23;20001;-87
2022/05/30 17:10:23;;;;;;;5.68;1.00;;;;;;;;;;6160764;23;20084;-84
2022/05/30 17:12:49;;;;;;;1.88;0.60;;;;;;;;;;6160451;23;20002;-85
2022/05/30 17:15:17;;;;;;;1.90;0.50;;;;;;;;;;6160719;23;20423;-82
2022/05/30 17:17:43;;;;;;;2.78;0.70;;;;;;;;;;6161065;23;20005;-83
2022/05/30 17:20:18;;;;;;;1.77;0.50;;;;;;;;;;6187178;23;20490;-82
2022/05/30 17:22:44;;;;;;;2.47;0.65;;;;;;;;;;6161041;23;20064;-82
2022/05/30 17:25:10;;;;;;;2.55;0.80;;;;;;;;;;6161390;23;20096;-84
2022/05/30 17:30:25;;;;;;;2.88;0.60;;;;;;;;;;6187535;23;20104;-87
2022/05/30 17:32:51;;;;;;;4.68;0.70;;;;;;;;;;6161540;23;20001;-87
2022/05/30 17:35:17;;;;;;;1.33;0.65;;;;;;;;;;6161791;23;20032;-84
2022/05/30 17:37:43;;;;;;;4.00;0.50;;;;;;;;;;6188786;23;20005;-88
2022/05/30 17:40:10;;;;;;;1.52;0.60;;;;;;;;;;6161377;23;20017;-84
2022/05/30 17:42:37;;;;;;;2.28;0.60;;;;;;;;;;6187866;23;20008;-81
2022/05/30 17:45:04;;;;;;;1.45;0.65;;;;;;;;;;6160585;23;20501;-82
2022/05/30 17:47:36;;;;;;;1.77;0.50;;;;;;;;;;6161272;23;20088;-84
2022/05/30 17:50:02;;;;;;;3.25;0.93;;;;;;;;;;6161203;23;20091;-87
2022/05/30 17:52:43;;;;;;;5.55;0.80;;;;;;;;;;6160807;23;20059;-86
2022/05/30 17:55:11;;;;;;;1.85;0.57;;;;;;;;;;6160643;23;20027;-82
2022/05/30 17:57:37;;;;;;;1.35;0.57;;;;;;;;;;6160570;23;20092;-85
2022/05/30 18:00:06;;;;;;;3.08;0.70;;;;;;;;;;6160505;23;20023;-82
2022/05/30 18:02:32;;;;;;;3.42;0.75;;;;;;;;;;6160040;23;20005;-82
2022/05/30 18:04:59;;;;;;;1.75;0.50;;;;;;;;;;6160795;23;20012;-84
2022/05/30 18:07:30;;;;;;;1.23;0.50;;;;;;;;;;6161080;23;20005;-82
2022/05/30 18:10:08;;;;;;;1.30;0.47;;;;;;;;;;6160785;23;20005;-83
2022/05/30 18:12:39;;;;;;;2.63;0.40;;;;;;;;;;6160772;23;20466;-84
2022/05/30 18:15:24;;;;;;;1.95;0.73;;;;;;;;;;6160962;23;20009;-83
2022/05/30 18:17:50;;;;;;;4.28;0.70;;;;;;;;;;6160262;23;20012;-83
2022/05/30 18:20:17;;;;;;;1.90;0.70;;;;;;;;;;6160817;23;20443;-87
2022/05/30 18:22:57;;;;;;;3.95;0.85;;;;;;;;;;6160723;23;20063;-84
2022/05/30 18:25:26;;;;;;;2.47;0.95;;;;;;;;;;6160764;23;20008;-85
2022/05/30 18:27:54;;;;;;;3.10;0.70;;;;;;;;;;6160880;23;20008;-85
2022/05/30 18:30:23;;;;;;;5.38;0.80;;;;;;;;;;6161065;23;20063;-87
2022/05/30 18:32:55;;;;;;;3.35;0.77;;;;;;;;;;6160782;23;20489;-85
2022/05/30 18:35:27;;;;;;;4.22;0.68;;;;;;;;;;6160304;23;20497;-83
2022/05/30 18:38:12;;;;;;;2.80;0.60;;;;;;;;;;6163246;23;20009;-85
2022/05/30 18:40:43;;;;;;;1.48;0.70;;;;;;;;;;6164401;23;20045;-83
2022/05/30 18:43:19;;;;;;;3.28;0.90;;;;;;;;;;6166061;23;20004;-82
2022/05/30 18:45:50;;;;;;;3.45;0.82;;;;;;;;;;6160197;23;20005;-83
2022/05/30 18:48:28;;;;;;;2.15;0.70;;;;;;;;;;6186366;23;19997;-83
2022/05/30 18:50:54;;;;;;;4.43;0.65;;;;;;;;;;6160563;23;20009;-82
2022/05/30 18:53:20;;;;;;;3.92;0.73;;;;;;;;;;6160121;23;20009;-85
2022/05/30 18:55:53;;;;;;;4.93;0.80;;;;;;;;;;6160445;23;20016;-86
2022/05/30 18:58:23;;;;;;;5.95;0.90;;;;;;;;;;6160312;23;20025;-84
2022/05/30 19:00:50;;;;;;;3.20;0.70;;;;;;;;;;6160551;23;20013;-84
2022/05/30 19:03:20;;;;;;;10.95;0.90;;;;;;;;;;6160916;23;20029;-86
2022/05/30 19:05:47;;;;;;;2.13;0.80;;;;;;;;;;6160848;23;20457;-86
2022/05/30 19:08:13;;;;;;;2.63;0.80;;;;;;;;;;6160511;23;20013;-85
2022/05/30 19:10:45;;;;;;;2.63;0.63;;;;;;;;;;6160971;23;20469;-84
2022/05/30 19:13:14;;;;;;;3.25;0.70;;;;;;;;;;6160840;23;20485;-84
2022/05/30 19:18:33;;;;;;;1.35;0.57;;;;;;;;;;6187074;23;20342;-86
2022/05/30 19:21:01;;;;;;;3.30;0.47;;;;;;;;;;6160739;23;20017;-85
2022/05/30 19:23:27;;;;;;;2.03;0.60;;;;;;;;;;6160877;23;20095;-83
2022/05/30 19:25:53;;;;;;;2.33;0.60;;;;;;;;;;6186436;23;20019;-85
2022/05/30 19:28:21;;;;;;;2.03;0.60;;;;;;;;;;6160852;23;20343;-84
2022/05/30 19:30:47;;;;;;;1.80;0.68;;;;;;;;;;6160043;23;20080;-84
2022/05/30 19:33:13;;;;;;;1.75;0.73;;;;;;;;;;6160364;23;20542;-85
2022/05/30 19:35:39;;;;;;;4.07;0.70;;;;;;;;;;6160488;23;20511;-85
2022/05/30 19:38:07;;;;;;;2.20;0.45;;;;;;;;;;6160300;23;20001;-85
2022/05/30 19:40:39;;;;;;;1.70;0.65;;;;;;;;;;6159796;23;20082;-83
2022/05/30 19:43:06;;;;;;;2.65;0.65;;;;;;;;;;6160103;23;20001;-84
2022/05/30 19:45:34;;;;;;;1.20;0.60;;;;;;;;;;6160052;23;20084;-84
2022/05/30 19:48:00;;;;;;;2.40;0.70;;;;;;;;;;6160655;23;20427;-85
2022/05/30 19:50:27;;;;;;;2.17;0.68;;;;;;;;;;6186575;23;20001;-85
2022/05/30 19:52:53;;;;;;;4.53;0.50;;;;;;;;;;6159638;23;20029;-79
2022/05/30 19:55:24;;;;;;;3.08;0.80;;;;;;;;;;6157260;23;20012;-79
2022/05/30 19:57:50;;;;;;;2.58;0.60;;;;;;;;;;6157301;23;20024;-80
2022/05/30 20:00:21;;;;;;;1.33;0.50;;;;;;;;;;6158576;23;20343;-80
2022/05/30 20:02:47;;;;;;;1.90;0.70;;;;;;;;;;6159224;23;20005;-81
2022/05/30 20:05:13;;;;;;;1.95;0.80;;;;;;;;;;6159453;23;20019;-79
2022/05/30 20:07:40;;;;;;;1.45;0.60;;;;;;;;;;6159365;23;20007;-80
2022/05/30 20:10:07;;;;;;;1.98;0.80;;;;;;;;;;6159730;23;20051;-81
2022/05/30 20:12:33;;;;;;;4.00;1.00;;;;;;;;;;6159213;23;20005;-79
2022/05/30 20:15:01;;;;;;;1.67;0.80;;;;;;;;;;6159237;23;20091;-81
2022/05/30 20:17:31;;;;;;;2.28;1.10;;;;;;;;;;6159112;23;20088;-80
2022/05/30 20:19:59;;;;;;;2.20;0.90;;;;;;;;;;6158462;23;20024;-81
2022/05/30 20:22:27;;;;;;;5.07;0.90;;;;;;;;;;6159256;23;20013;-82
2022/05/30 20:24:53;;;;;;;2.80;0.95;;;;;;;;;;6159364;23;20494;-82
2022/05/30 20:27:19;;;;;;;2.97;0.90;;;;;;;;;;6159589;23;20052;-80
2022/05/30 20:29:46;;;;;;;2.20;0.82;;;;;;;;;;6159314;23;20001;-81
2022/05/30 20:32:12;;;;;;;2.45;0.82;;;;;;;;;;6158954;23;20427;-83
2022/05/30 20:34:38;;;;;;;1.50;0.70;;;;;;;;;;6159282;23;20010;-82
2022/05/30 20:37:05;;;;;;;1.77;0.85;;;;;;;;;;6159528;23;20009;-82
2022/05/30 20:39:31;;;;;;;3.00;0.90;;;;;;;;;;6159159;23;20063;-83
2022/05/30 20:45:02;;;;;;;2.25;0.90;;;;;;;;;;6125144;23;20009;-81
2022/05/30 20:47:32;;;;;;;2.95;0.88;;;;;;;;;;6125007;23;20081;-82
2022/05/30 20:49:58;;;;;;;1.42;0.70;;;;;;;;;;6130724;23;20016;-80
2022/05/30 20:52:24;;;;;;;1.92;0.80;;;;;;;;;;6161648;23;20012;-80
2022/05/30 20:54:50;;;;;;;4.50;0.77;;;;;;;;;;6161113;23;20005;-82
2022/05/30 20:57:19;;;;;;;2.88;1.00;;;;;;;;;;6189163;23;20055;-80
2022/05/30 20:59:45;;;;;;;3.00;1.02;;;;;;;;;;6217309;23;20315;-82
2022/05/30 21:02:11;;;;;;;2.95;1.00;;;;;;;;;;6191344;23;20024;-82
2022/05/30 21:04:38;;;;;;;2.67;1.13;;;;;;;;;;6217719;23;20000;-81
2022/05/30 21:07:05;;;;;;;2.38;0.90;;;;;;;;;;6218608;23;20373;-80
2022/05/30 21:09:31;;;;;;;1.90;0.90;;;;;;;;;;6190077;23;20008;-82
2022/05/30 21:11:57;;;;;;;2.65;1.13;;;;;;;;;;6190295;23;20024;-82
2022/05/30 21:14:23;;;;;;;3.70;1.02;;;;;;;;;;6190638;23;20520;-81
2022/05/30 21:17:01;;;;;;;3.33;1.17;;;;;;;;;;6190625;23;20015;-82
2022/05/30 21:19:39;;;;;;;3.33;1.02;;;;;;;;;;6190615;23;20017;-84
2022/05/30 21:22:08;;;;;;;3.78;1.23;;;;;;;;;;6190745;23;20009;-84
2022/05/30 21:24:34;;;;;;;2.35;1.15;;;;;;;;;;6217315;23;20430;-84
2022/05/30 21:27:01;;;;;;;3.10;1.40;;;;;;;;;;6190865;23;20379;-84
2022/05/30 21:29:28;;;;;;;2.75;1.23;;;;;;;;;;6190640;23;20339;-84
2022/05/30 21:32:00;;;;;;;3.17;1.50;;;;;;;;;;6190702;23;20023;-83
2022/05/30 21:34:32;;;;;;;3.67;1.70;;;;;;;;;;6190955;23;20438;-83
2022/05/30 21:37:00;;;;;;;4.95;1.83;;;;;;;;;;6190936;23;20005;-84
2022/05/30 21:39:26;;;;;;;3.60;1.88;;;;;;;;;;6190706;23;20016;-84
2022/05/30 21:41:54;;;;;;;4.13;1.70;;;;;;;;;;6191417;23;20365;-82
2022/05/30 21:44:20;;;;;;;3.60;1.80;;;;;;;;;;6189898;23;20009;-83
2022/05/30 21:46:47;;;;;;;3.08;1.67;;;;;;;;;;6190604;23;20008;-83
2022/05/30 21:49:13;;;;;;;4.13;1.77;;;;;;;;;;6190515;23;20005;-85
2022/05/30 21:51:40;;;;;;;3.08;1.85;;;;;;;;;;6190301;23;20443;-81
2022/05/30 21:54:06;;;;;;;3.40;1.35;;;;;;;;;;6190256;23;20008;-84
2022/05/30 21:56:35;;;;;;;3.25;1.75;;;;;;;;;;6190455;23;20028;-84
2022/05/30 21:59:03;;;;;;;2.42;1.80;;;;;;;;;;6190275;23;20020;-84
2022/05/30 22:01:30;;;;;;;2.97;1.73;;;;;;;;;;6190787;23;20012;-83
2022/05/30 22:03:57;;;;;;;2.95;1.60;;;;;;;;;;6190360;23;20001;-80
2022/05/30 22:06:23;;;;;;;3.63;1.80;;;;;;;;;;6190678;23;20430;-81
2022/05/30 22:08:49;;;;;;;2.85;1.45;;;;;;;;;;6217093;23;20015;-84
2022/05/30 22:11:18;;;;;;;2.83;1.80;;;;;;;;;;6190636;23;20011;-84
2022/05/30 22:13:45;;;;;;;2.38;1.30;;;;;;;;;;6190344;23;20367;-84
2022/05/30 22:16:13;;;;;;;2.75;1.63;;;;;;;;;;6190454;23;20084;-84
2022/05/30 22:18:39;;;;;;;2.88;1.60;;;;;;;;;;6190372;23;20016;-81
2022/05/30 22:21:06;;;;;;;2.58;1.60;;;;;;;;;;6190232;23;20017;-84
2022/05/30 22:23:32;;;;;;;4.00;1.60;;;;;;;;;;6190689;23;20080;-83
2022/05/30 22:26:00;;;;;;;3.33;1.40;;;;;;;;;;6190377;23;20434;-83
2022/05/30 22:28:26;;;;;;;3.92;1.55;;;;;;;;;;6190736;23;20001;-84
2022/05/30 22:30:53;;;;;;;2.88;1.55;;;;;;;;;;6190596;23;20008;-84
2022/05/30 22:33:23;;;;;;;3.83;1.48;;;;;;;;;;6190518;23;20051;-83
2022/05/30 22:35:51;;;;;;;3.45;1.50;;;;;;;;;;6189976;23;20027;-84
2022/05/30 22:38:17;;;;;;;3.03;1.63;;;;;;;;;;6190327;23;20032;-84
2022/05/30 22:40:44;;;;;;;3.72;1.50;;;;;;;;;;6190446;23;20082;-83
2022/05/30 22:43:11;;;;;;;2.25;1.50;;;;;;;;;;6190466;23;20048;-80
2022/05/30 22:45:38;;;;;;;2.75;1.40;;;;;;;;;;6190085;23;20334;-84
2022/05/30 22:48:05;;;;;;;2.33;1.50;;;;;;;;;;6216787;23;19996;-82
2022/05/30 22:50:32;;;;;;;3.97;1.60;;;;;;;;;;6190176;23;20390;-85
2022/05/30 22:52:59;;;;;;;2.53;1.40;;;;;;;;;;6190169;23;20012;-82
2022/05/30 22:55:27;;;;;;;2.10;1.30;;;;;;;;;;6189957;23;20000;-82
2022/05/30 22:57:53;;;;;;;3.90;1.50;;;;;;;;;;6216290;23;20051;-84
2022/05/30 23:00:22;;;;;;;2.53;1.48;;;;;;;;;;6189879;23;20038;-82
2022/05/30 23:02:48;;;;;;;2.72;1.50;;;;;;;;;;6216623;23;20000;-84